5AR2 weather

Turrell Flying Service Airport
Turrell, Arkansas, United States

Public forecast

Using degrees Fahrenheit for public forecast. Weather courtesy of forecast.io.

Closest aviation weather report (METAR) to Turrell Flying Service Airport

Closest report is West Memphis Municipal Airport, 14.5 nm (26.8 km) S. Retrieved 2019/10/17 20:53 UTC (32 minutes ago):

KAWM 172053Z AUTO 35008KT 10SM CLR 18/06 A3001 RMK AO2 SLP159 T01830061 57026

Closest aviation forecast (TAF) to Turrell Flying Service Airport

Closest forecast is Memphis International Airport, 22.9 nm (42.5 km) SSE. Retrieved 2019/10/17 18:24 UTC (3 hours ago):

TAF KMEM 171722Z 1718/1824 24004KT P6SM FEW100 SCT250 FM171900 34005KT P6SM SCT250 FM180200 07004KT P6SM BKN250 FM181500 11007KT P6SM SCT250